Time;durP1;ratioP1;P1;durP2;ratioP2;P2;SDS_P1;SDS_P2;PMS_P1;PMS_P2;Temp;Humidity;BMP_temperature;BMP_pressure;BME280_temperature;BME280_humidity;BME280_pressure;Samples;Min_cycle;Max_cycle;Signal;HPM_P1;HPM_P2
2021/12/16 00:07:48;;;;;;;32.50;12.35;;;;;;;-142.75;100.00;79132.09;5050364;28;20036;-68
2021/12/16 00:10:09;;;;;;;28.00;11.43;;;;;;;-142.75;100.00;79126.19;5039930;28;20448;-69
2021/12/16 00:29:14;;;;;;;32.72;11.82;;;;;;;-142.75;100.00;79110.44;5068940;28;20090;-68
2021/12/16 00:31:57;;;;;;;31.17;12.02;;;;;;;-142.75;100.00;79106.50;5067791;28;20059;-68
2021/12/16 00:34:27;;;;;;;29.98;11.32;;;;;;;-142.75;100.00;79116.34;5068737;28;20070;-68
2021/12/16 00:36:52;;;;;;;28.33;10.13;;;;;;;-142.75;100.00;79108.47;5068542;28;20016;-66
2021/12/16 00:39:24;;;;;;;26.15;11.13;;;;;;;-142.75;100.00;79116.34;5051017;28;20028;-68
2021/12/16 00:41:54;;;;;;;24.23;12.43;;;;;;;-142.75;100.00;79130.13;5050176;28;20034;-68
2021/12/16 00:44:48;;;;;;;26.08;11.85;;;;;;;-142.75;100.00;79122.25;5050936;28;20071;-68
2021/12/16 00:49:53;;;;;;;31.77;13.18;;;;;;;-142.75;100.00;79138.00;5050219;28;20032;-67
2021/12/16 00:55:28;;;;;;;39.65;13.55;;;;;;;-142.75;100.00;79157.72;5052341;28;20559;-68
2021/12/16 00:57:54;;;;;;;38.40;14.77;;;;;;;-142.75;100.00;79171.50;5034141;28;20029;-67
2021/12/16 01:00:23;;;;;;;38.92;14.57;;;;;;;-142.75;100.00;79179.38;5051508;28;20379;-68
2021/12/16 01:05:51;;;;;;;39.97;14.70;;;;;;;-142.75;100.00;79197.09;5052265;28;20518;-68
2021/12/16 01:50:53;;;;;;;36.55;16.10;;;;;;;-142.75;100.00;79197.09;5050121;28;20057;-68
2021/12/16 01:54:02;;;;;;;42.30;17.02;;;;;;;-142.75;100.00;79197.09;5033510;28;20418;-68
2021/12/16 01:56:40;;;;;;;36.90;15.55;;;;;;;-142.75;100.00;79206.94;5050483;28;20039;-68
2021/12/16 01:59:06;;;;;;;37.08;16.25;;;;;;;-142.75;100.00;79206.94;5050871;28;20478;-68
2021/12/16 02:01:33;;;;;;;;;;;;;;;-142.75;100.00;79212.84;5050285;28;20025;-68
2021/12/16 02:04:08;;;;;;;;;;;;;;;-142.75;100.00;79201.03;5033332;28;19958;-68
2021/12/16 02:09:11;;;;;;;37.65;14.93;;;;;;;-142.75;100.00;79216.78;5050745;28;20068;-68
2021/12/16 02:27:50;;;;;;;31.88;14.85;;;;;;;-142.75;100.00;79224.69;5050429;28;20411;-68
2021/12/16 02:35:57;;;;;;;44.80;15.80;;;;;;;-142.75;100.00;79212.84;5070293;28;20115;-68
2021/12/16 02:38:27;;;;;;;34.45;15.18;;;;;;;-142.75;100.00;79230.59;5070090;28;20039;-66
2021/12/16 02:40:53;;;;;;;39.97;15.30;;;;;;;-142.75;100.00;79214.81;5069175;28;20115;-67
2021/12/16 02:48:37;;;;;;;33.13;14.52;;;;;;;-142.75;100.00;79204.97;5070157;28;20079;-67
2021/12/16 02:51:05;;;;;;;30.52;14.32;;;;;;;-142.75;100.00;79193.16;5068937;28;20036;-68
2021/12/16 02:53:32;;;;;;;35.95;14.07;;;;;;;-142.75;100.00;79175.44;5069580;28;20029;-68
2021/12/16 02:55:57;;;;;;;33.00;13.85;;;;;;;-142.75;100.00;79189.22;5051786;28;20055;-67
2021/12/16 02:58:24;;;;;;;38.05;14.00;;;;;;;-142.75;100.00;79189.22;5051884;28;20056;-67
2021/12/16 03:00:57;;;;;;;32.30;14.15;;;;;;;-142.75;100.00;79185.28;5069089;28;20421;-68
2021/12/16 03:03:23;;;;;;;29.98;13.25;;;;;;;-142.75;100.00;79185.28;5051821;28;20451;-68
2021/12/16 03:05:48;;;;;;;;;;;;;;;-142.75;100.00;79181.34;5070384;28;20090;-68
2021/12/16 03:08:14;;;;;;;30.63;13.68;;;;;;;-142.75;100.00;79171.50;5069483;28;19912;-68
2021/12/16 03:11:02;;;;;;;34.85;13.52;;;;;;;-142.75;100.00;79161.66;5050724;28;20116;-68
2021/12/16 03:13:30;;;;;;;37.00;14.63;;;;;;;-142.75;100.00;79161.66;5068714;28;20040;-68
2021/12/16 03:21:14;;;;;;;36.13;12.70;;;;;;;-142.75;100.00;79161.66;5068811;28;20028;-67
2021/12/16 03:26:46;;;;;;;35.35;13.13;;;;;;;-142.75;100.00;79157.72;5069377;28;20552;-68
2021/12/16 03:37:15;;;;;;;28.80;12.57;;;;;;;-142.75;100.00;79153.75;5069372;28;20033;-68
2021/12/16 03:39:54;;;;;;;31.73;13.02;;;;;;;-142.75;100.00;79151.78;5050440;28;20052;-68
2021/12/16 03:42:37;;;;;;;33.35;12.93;;;;;;;-142.75;100.00;79145.88;5069408;28;20026;-68
2021/12/16 03:48:02;;;;;;;25.38;13.27;;;;;;;-142.75;100.00;79141.94;5069465;28;20034;-68
2021/12/16 03:50:27;;;;;;;27.92;12.07;;;;;;;-142.75;100.00;79155.72;5068298;28;20375;-67
2021/12/16 03:52:53;;;;;;;33.97;12.35;;;;;;;-142.75;100.00;79153.75;5050927;28;20078;-67
2021/12/16 03:55:19;;;;;;;23.17;13.35;;;;;;;-142.75;100.00;79159.69;5069428;28;20056;-69
2021/12/16 03:57:45;;;;;;;25.92;11.82;;;;;;;-142.75;100.00;79145.88;5068915;28;20063;-68
2021/12/16 04:00:17;;;;;;;34.55;13.60;;;;;;;-142.75;100.00;79153.75;5068182;28;20028;-68
2021/12/16 04:02:43;;;;;;;30.20;12.32;;;;;;;-142.75;100.00;79165.59;5068851;28;20371;-68
2021/12/16 04:05:12;;;;;;;37.53;13.07;;;;;;;-142.75;100.00;79169.53;5068919;28;20025;-68
2021/12/16 04:07:39;;;;;;;38.40;13.77;;;;;;;-142.75;100.00;79171.50;5068821;28;20047;-68
2021/12/16 04:10:09;;;;;;;24.52;12.27;;;;;;;-142.75;100.00;79181.34;5068057;28;20126;-68
2021/12/16 04:12:35;;;;;;;29.17;12.30;;;;;;;-142.75;100.00;79181.34;5068553;28;20028;-68
2021/12/16 04:15:04;;;;;;;31.60;13.10;;;;;;;-142.75;100.00;79195.13;5068782;28;20769;-68
2021/12/16 04:17:31;;;;;;;30.63;12.63;;;;;;;-142.75;100.00;79201.03;5050806;28;20029;-68
2021/12/16 04:19:57;;;;;;;28.83;12.18;;;;;;;-142.75;100.00;79201.03;5068610;28;20036;-67
2021/12/16 04:22:31;;;;;;;25.40;11.77;;;;;;;-142.75;100.00;79189.22;5072578;28;20039;-67
2021/12/16 04:25:01;;;;;;;28.65;11.68;;;;;;;-142.75;100.00;79185.28;5054563;28;20028;-67
2021/12/16 04:27:27;;;;;;;31.15;12.63;;;;;;;-142.75;100.00;79181.34;5072272;28;20016;-67
2021/12/16 04:29:52;;;;;;;26.10;12.10;;;;;;;-142.75;100.00;79193.16;5071785;28;20103;-66
2021/12/16 04:32:18;;;;;;;24.70;11.93;;;;;;;-142.75;100.00;79189.22;5054193;28;20051;-68
2021/12/16 04:34:44;;;;;;;27.63;12.52;;;;;;;-142.75;100.00;79193.16;5072456;28;20076;-68
2021/12/16 04:37:09;;;;;;;26.40;12.15;;;;;;;-142.75;100.00;79193.16;5054346;28;20057;-68
2021/12/16 04:39:37;;;;;;;26.75;12.00;;;;;;;-142.75;100.00;79187.25;5072217;28;20020;-68
2021/12/16 04:42:04;;;;;;;24.05;10.43;;;;;;;-142.75;100.00;79191.19;5071810;28;20490;-68
2021/12/16 04:44:32;;;;;;;28.60;11.75;;;;;;;-142.75;100.00;79177.41;5072181;28;20021;-68
2021/12/16 04:47:00;;;;;;;22.08;11.57;;;;;;;-142.75;100.00;79157.72;5054213;28;20123;-68
2021/12/16 04:49:25;;;;;;;24.52;11.77;;;;;;;-142.75;100.00;79167.56;5054371;28;20036;-67
2021/12/16 04:51:55;;;;;;;24.92;12.30;;;;;;;-142.75;100.00;79185.28;5071530;28;20039;-68
2021/12/16 04:54:23;;;;;;;25.50;11.75;;;;;;;-142.75;100.00;79189.22;5034663;28;20023;-68
2021/12/16 04:56:51;;;;;;;27.00;12.15;;;;;;;-142.75;100.00;79201.03;5052284;28;20102;-68
2021/12/16 04:59:18;;;;;;;26.70;11.40;;;;;;;-142.75;100.00;79199.06;5034137;28;20113;-68
2021/12/16 05:01:50;;;;;;;23.83;11.27;;;;;;;-142.75;100.00;79214.81;5051027;28;20024;-68
2021/12/16 05:04:16;;;;;;;29.65;12.18;;;;;;;-142.75;100.00;79216.78;5051876;28;20079;-68
2021/12/16 05:06:41;;;;;;;29.30;12.00;;;;;;;-142.75;100.00;79226.66;5034089;28;20112;-69
2021/12/16 05:09:09;;;;;;;25.13;11.57;;;;;;;-142.75;100.00;79212.84;5051582;28;20108;-68
2021/12/16 05:11:35;;;;;;;24.15;10.43;;;;;;;-142.75;100.00;79210.88;5050897;28;20017;-69
2021/12/16 05:14:03;;;;;;;23.05;10.57;;;;;;;-142.75;100.00;79210.88;5051669;28;20059;-68
2021/12/16 05:16:29;;;;;;;24.67;11.00;;;;;;;-142.75;100.00;79226.66;5033727;28;20043;-68
2021/12/16 05:18:56;;;;;;;22.00;10.52;;;;;;;-142.75;100.00;79240.44;5051709;28;20033;-67
2021/12/16 05:26:43;;;;;;;22.52;9.57;;;;;;;-142.75;100.00;79238.47;5051632;28;21046;-69
2021/12/16 05:29:09;;;;;;;21.20;10.98;;;;;;;-142.75;100.00;79236.50;5051432;28;20394;-68
2021/12/16 05:31:34;;;;;;;30.02;11.70;;;;;;;-142.75;100.00;79250.28;5031249;28;20044;-69
2021/12/16 05:34:01;;;;;;;24.05;11.68;;;;;;;-142.75;100.00;79246.34;5051081;28;20029;-68
2021/12/16 05:36:26;;;;;;;;;;;;;;;-142.75;100.00;79266.03;5051772;28;20033;-68
2021/12/16 05:38:52;;;;;;;30.63;10.80;;;;;;;-142.75;100.00;79264.06;5051279;28;20003;-67
2021/12/16 05:41:19;;;;;;;21.33;10.77;;;;;;;-142.75;100.00;79258.16;5032940;28;20025;-68
2021/12/16 05:43:46;;;;;;;28.17;11.27;;;;;;;-142.75;100.00;79260.13;5051178;28;20617;-69
2021/12/16 05:46:13;;;;;;;27.98;11.23;;;;;;;-142.75;100.00;79246.34;5050994;28;20510;-69
2021/12/16 05:48:41;;;;;;;23.95;10.52;;;;;;;-142.75;100.00;79252.25;5051054;28;20049;-69
2021/12/16 05:51:11;;;;;;;20.15;10.82;;;;;;;-142.75;100.00;79244.38;5032225;28;20593;-69
2021/12/16 05:53:37;;;;;;;17.85;9.95;;;;;;;-142.75;100.00;79260.13;5050941;28;20032;-68
2021/12/16 05:56:04;;;;;;;;;;;;;;;-142.75;100.00;79273.91;5058283;28;20382;-69
2021/12/16 05:58:30;;;;;;;23.00;11.30;;;;;;;-142.75;100.00;79283.78;5052795;28;19912;-69
2021/12/16 06:00:58;;;;;;;;;;;;;;;-142.75;100.00;79271.94;5070394;28;20039;-68
2021/12/16 06:03:24;;;;;;;26.65;11.15;;;;;;;-142.75;100.00;79260.13;5070705;28;19916;-66
2021/12/16 06:05:51;;;;;;;27.25;10.75;;;;;;;-142.75;100.00;79273.91;5053081;28;20165;-69
2021/12/16 06:08:16;;;;;;;24.77;11.48;;;;;;;-142.75;100.00;79268.00;5053002;28;20074;-69
2021/12/16 06:13:31;;;;;;;25.13;11.77;;;;;;;-142.75;100.00;79271.94;5070467;28;20032;-69
2021/12/16 06:29:17;;;;;;;23.67;10.75;;;;;;;-142.75;100.00;79287.72;5070605;28;20116;-69
2021/12/16 06:31:42;;;;;;;27.92;11.82;;;;;;;-142.75;100.00;79301.50;5069200;28;20409;-69
2021/12/16 06:34:08;;;;;;;23.42;10.88;;;;;;;-142.75;100.00;79299.53;5070044;28;20541;-69
2021/12/16 06:36:33;;;;;;;;;;;;;;;-142.75;100.00;79297.56;5070464;28;20044;-69
2021/12/16 06:38:59;;;;;;;19.63;10.00;;;;;;;-142.75;100.00;79295.59;5070016;28;19912;-69
2021/12/16 06:41:26;;;;;;;23.45;10.90;;;;;;;-142.75;100.00;79295.59;5069219;28;20031;-67
2021/12/16 06:43:54;;;;;;;25.55;10.90;;;;;;;-142.75;100.00;79307.41;5069461;28;20021;-67
2021/12/16 06:46:22;;;;;;;19.50;10.55;;;;;;;-142.75;100.00;79319.22;5070058;28;20055;-68
2021/12/16 06:48:55;;;;;;;22.33;11.05;;;;;;;-142.75;100.00;79303.47;5069893;28;20020;-68
2021/12/16 06:51:33;;;;;;;24.85;11.27;;;;;;;-142.75;100.00;79307.41;5051424;28;20037;-69
2021/12/16 06:54:06;;;;;;;21.50;10.40;;;;;;;-142.75;100.00;79315.28;5069674;28;20028;-68
2021/12/16 06:56:39;;;;;;;21.38;9.90;;;;;;;-142.75;100.00;79321.19;5069721;28;20077;-69
2021/12/16 06:59:21;;;;;;;23.83;11.90;;;;;;;-142.75;100.00;79323.16;5069512;28;20028;-68
2021/12/16 07:02:02;;;;;;;23.75;11.18;;;;;;;-142.75;100.00;79336.94;5050984;28;20073;-69
2021/12/16 07:04:27;;;;;;;23.83;11.30;;;;;;;-142.75;100.00;79327.09;5069613;28;20028;-69
2021/12/16 07:06:53;;;;;;;18.63;10.23;;;;;;;-142.75;100.00;79321.19;5069422;28;20445;-68
2021/12/16 07:09:19;;;;;;;20.95;9.90;;;;;;;-142.75;100.00;79323.16;5069776;28;20051;-69
2021/12/16 07:11:47;;;;;;;;;;;;;;;-142.75;100.00;79321.19;5068513;28;20033;-68
2021/12/16 07:14:15;;;;;;;22.05;10.38;;;;;;;-142.75;100.00;79321.19;5069216;28;20345;-69
2021/12/16 07:16:43;;;;;;;23.58;10.23;;;;;;;-142.75;100.00;79331.03;5069405;28;20016;-69
2021/12/16 07:19:09;;;;;;;20.67;9.98;;;;;;;-142.75;100.00;79340.91;5069420;28;20059;-68
2021/12/16 07:21:38;;;;;;;19.90;10.45;;;;;;;-142.75;100.00;79354.69;5068644;28;20024;-69
2021/12/16 07:24:06;;;;;;;26.90;11.18;;;;;;;-142.75;100.00;79372.41;5069468;28;20031;-69
2021/12/16 07:26:32;;;;;;;25.75;11.82;;;;;;;-142.75;100.00;79376.34;5051322;28;20025;-69
2021/12/16 07:28:57;;;;;;;23.45;11.02;;;;;;;-142.75;100.00;79376.34;5069500;28;20044;-69
2021/12/16 07:31:23;;;;;;;24.80;10.32;;;;;;;-142.75;100.00;79382.25;5068519;28;20540;-67
2021/12/16 07:33:48;;;;;;;26.85;11.13;;;;;;;-142.75;100.00;79382.25;5051576;28;20024;-69
2021/12/16 07:36:18;;;;;;;23.92;11.05;;;;;;;-142.75;100.00;79386.19;5069070;28;20036;-69
2021/12/16 07:38:44;;;;;;;20.02;10.85;;;;;;;-142.75;100.00;79403.94;5069270;28;20024;-69
2021/12/16 07:41:09;;;;;;;25.17;11.10;;;;;;;-142.75;100.00;79400.00;5068366;28;20425;-69
2021/12/16 07:46:06;;;;;;;20.45;10.98;;;;;;;-142.75;100.00;79396.06;5069268;28;20032;-69
2021/12/16 07:48:32;;;;;;;;;;;;;;;-142.75;100.00;79400.00;5069526;28;20024;-68
2021/12/16 07:51:00;;;;;;;30.42;12.43;;;;;;;-142.75;100.00;79401.97;5050266;28;19920;-69
2021/12/16 07:53:25;;;;;;;28.40;11.57;;;;;;;-142.75;100.00;79407.88;5069021;28;20039;-68
2021/12/16 07:55:51;;;;;;;21.70;10.48;;;;;;;-142.75;100.00;79407.88;5053447;28;20024;-68
2021/12/16 07:58:17;;;;;;;21.05;10.50;;;;;;;-142.75;100.00;79419.69;5073562;28;20028;-68
2021/12/16 08:00:42;;;;;;;24.00;12.02;;;;;;;-142.75;100.00;79407.88;5072212;28;20437;-69
2021/12/16 08:03:10;;;;;;;27.48;12.07;;;;;;;-142.75;100.00;79407.88;5062654;28;20505;-69
2021/12/16 08:05:40;;;;;;;27.95;11.55;;;;;;;-142.75;100.00;79407.88;5035006;28;20044;-69
2021/12/16 08:08:07;;;;;;;22.93;11.03;;;;;;;-142.75;100.00;79398.03;5052785;28;20037;-68
2021/12/16 08:10:33;;;;;;;19.70;10.53;;;;;;;-142.75;100.00;79372.41;5052139;28;20037;-69
2021/12/16 08:12:58;;;;;;;21.73;11.15;;;;;;;-142.75;100.00;79344.84;5052597;28;20033;-68
2021/12/16 08:15:25;;;;;;;17.55;10.43;;;;;;;-142.75;100.00;79331.03;5053013;28;20036;-68
2021/12/16 08:17:50;;;;;;;;;;;;;;;-142.75;100.00;79323.16;5053489;28;20087;-68
2021/12/16 08:20:18;;;;;;;24.38;12.00;;;;;;;-142.75;100.00;79321.19;5034113;28;20285;-69
2021/12/16 08:22:49;;;;;;;23.13;14.13;;;;;;;-142.75;100.00;79317.25;5052436;28;20020;-69
2021/12/16 08:25:17;;;;;;;23.00;12.02;;;;;;;-142.75;100.00;79303.47;5052564;28;20021;-69
2021/12/16 08:27:43;;;;;;;16.10;9.73;;;;;;;-142.75;100.00;79277.88;5052197;28;20032;-70
2021/12/16 08:30:11;;;;;;;24.95;16.50;;;;;;;-142.75;100.00;79236.50;5051474;28;20093;-69
2021/12/16 08:32:37;;;;;;;22.23;11.52;;;;;;;-142.75;100.00;79199.06;5033877;28;20048;-69
2021/12/16 08:35:05;;;;;;;21.10;11.55;;;;;;;-142.75;100.00;79173.47;5052450;28;20024;-68
2021/12/16 08:37:30;;;;;;;22.52;11.38;;;;;;;-142.75;100.00;79122.25;5032600;28;20482;-68
2021/12/16 08:39:56;;;;;;;22.15;11.85;;;;;;;-142.75;100.00;79061.19;5049641;28;20024;-69
2021/12/16 08:42:21;;;;;;;19.95;11.05;;;;;;;-142.75;100.00;79017.84;5059055;28;20032;-71
2021/12/16 08:44:47;;;;;;;26.38;12.27;;;;;;;-142.75;100.00;78962.69;5071629;28;20024;-71
2021/12/16 08:47:16;;;;;;;20.75;10.95;;;;;;;-142.75;100.00;78927.25;5053410;28;20034;-71
2021/12/16 08:49:41;;;;;;;20.13;10.43;;;;;;;-142.75;100.00;78883.91;5052684;28;20024;-69
2021/12/16 08:52:12;;;;;;;16.83;10.13;;;;;;;-142.75;100.00;78850.44;5052987;28;20111;-69
2021/12/16 08:54:37;;;;;;;21.88;10.20;;;;;;;-142.75;100.00;78822.88;5053076;28;20477;-68
2021/12/16 08:57:03;;;;;;;20.17;10.52;;;;;;;-142.75;100.00;78807.09;5070946;28;20028;-69
2021/12/16 08:59:29;;;;;;;20.63;10.02;;;;;;;-142.75;100.00;78791.34;5053294;28;20032;-68
2021/12/16 09:01:57;;;;;;;23.63;10.85;;;;;;;-142.75;100.00;78781.50;5070026;28;20483;-66
2021/12/16 09:04:23;;;;;;;18.38;10.10;;;;;;;-142.75;100.00;78767.72;5071141;28;20029;-67
2021/12/16 09:06:56;;;;;;;18.00;9.75;;;;;;;-142.75;100.00;78738.16;5070679;28;20035;-66
2021/12/16 09:09:22;;;;;;;16.38;9.82;;;;;;;-142.75;100.00;78732.25;5059489;28;20390;-69
2021/12/16 09:14:35;;;;;;;22.60;11.75;;;;;;;-142.75;100.00;78763.78;5047837;28;20058;-68
2021/12/16 09:17:01;;;;;;;19.85;11.07;;;;;;;-142.75;100.00;78767.72;5070341;28;20078;-69
2021/12/16 09:19:27;;;;;;;18.92;10.48;;;;;;;-142.75;100.00;78775.59;5070795;28;20462;-65
2021/12/16 09:21:52;;;;;;;19.90;9.57;;;;;;;-142.75;100.00;78751.97;5069472;28;20162;-67
2021/12/16 09:24:18;;;;;;;21.60;11.00;;;;;;;-142.75;100.00;78748.03;5070517;28;20379;-68
2021/12/16 09:26:44;;;;;;;;;;;;;;;-142.75;100.00;78738.16;5053215;28;20028;-68
2021/12/16 09:29:09;;;;;;;62.55;46.47;;;;;;;-142.75;100.00;78757.88;5052312;28;19935;-68
2021/12/16 09:31:35;;;;;;;24.85;18.25;;;;;;;-142.75;100.00;78720.44;5069323;28;20482;-68
2021/12/16 09:34:07;;;;;;;;;;;;;;;-142.75;100.00;78714.53;5052738;28;20024;-68
2021/12/16 09:36:33;;;;;;;19.50;14.15;;;;;;;-142.75;100.00;78688.94;5070707;28;20007;-68
2021/12/16 09:39:00;;;;;;;13.88;7.72;;;;;;;-142.75;100.00;78663.31;5069387;28;20066;-68
2021/12/16 09:41:27;;;;;;;17.00;8.45;;;;;;;-142.75;100.00;78633.78;5069631;28;20021;-68
2021/12/16 09:43:54;;;;;;;15.65;7.47;;;;;;;-142.75;100.00;78633.78;5069630;28;20085;-66
2021/12/16 09:46:23;;;;;;;13.18;6.70;;;;;;;-142.75;100.00;78653.47;5070095;28;20036;-67
2021/12/16 09:48:49;;;;;;;13.55;8.45;;;;;;;-142.75;100.00;78616.06;5051917;28;20028;-68
2021/12/16 09:51:20;;;;;;;;;;;;;;;-142.75;100.00;78594.41;5054266;28;20025;-68
2021/12/16 09:53:48;;;;;;;12.00;7.72;;;;;;;-142.75;100.00;78586.53;5049266;28;19916;-67
2021/12/16 09:56:14;;;;;;;14.55;7.47;;;;;;;-142.75;100.00;78600.31;5048053;28;20025;-68
2021/12/16 09:58:42;;;;;;;;;;;;;;;-142.75;100.00;78614.09;5048578;28;20024;-68
2021/12/16 10:01:11;;;;;;;15.98;8.65;;;;;;;-142.75;100.00;78594.41;5048551;28;19970;-68
2021/12/16 10:03:39;;;;;;;15.60;9.18;;;;;;;-142.75;100.00;78558.94;5049800;28;20025;-67
2021/12/16 10:06:05;;;;;;;20.88;11.40;;;;;;;-142.75;100.00;78568.78;5050055;28;20119;-68
2021/12/16 10:08:30;;;;;;;18.90;10.50;;;;;;;-142.75;100.00;78556.97;5049864;28;20106;-68
2021/12/16 10:10:56;;;;;;;;;;;;;;;-142.75;100.00;78523.50;5049397;28;20032;-67
2021/12/16 10:13:32;;;;;;;17.13;9.48;;;;;;;-142.75;100.00;78531.38;5050183;28;19916;-68
2021/12/16 10:18:30;;;;;;;23.63;11.30;;;;;;;-142.75;100.00;78513.66;5049519;28;20037;-68
2021/12/16 10:21:02;;;;;;;20.42;10.73;;;;;;;-142.75;100.00;78486.06;5048472;28;20445;-67
2021/12/16 10:23:31;;;;;;;22.52;10.07;;;;;;;-142.75;99.89;78464.41;5049277;28;20079;-68
2021/12/16 10:26:07;;;;;;;17.02;9.35;;;;;;;-142.75;99.72;78456.53;5031249;28;20079;-68
2021/12/16 10:28:41;;;;;;;21.38;9.57;;;;;;;-142.75;99.25;78440.78;5049589;28;20096;-68
2021/12/16 10:31:10;;;;;;;14.10;9.52;;;;;;;-142.75;98.05;78425.03;5030544;28;20035;-68
2021/12/16 10:33:41;;;;;;;23.30;10.68;;;;;;;-142.75;97.98;78436.84;5049159;28;20024;-68
2021/12/16 10:36:29;;;;;;;18.17;10.15;;;;;;;-142.75;97.26;78442.75;5049298;28;20033;-68
2021/12/16 10:38:59;;;;;;;16.10;8.85;;;;;;;-142.75;98.06;78434.88;5030770;28;20029;-68
2021/12/16 10:41:47;;;;;;;18.02;9.30;;;;;;;-142.75;97.64;78415.19;5048910;28;20044;-69
2021/12/16 10:44:19;;;;;;;15.80;8.35;;;;;;;-142.75;96.02;78358.06;5031144;28;20037;-68
2021/12/16 10:46:54;;;;;;;20.92;9.65;;;;;;;-142.75;94.34;78352.16;5049154;28;20429;-68
2021/12/16 10:49:25;;;;;;;22.15;9.65;;;;;;;-142.75;94.34;78346.25;5049242;28;20490;-68
2021/12/16 10:51:54;;;;;;;14.90;8.80;;;;;;;-142.75;94.18;78371.84;5047783;28;20402;-67
2021/12/16 10:54:29;;;;;;;19.48;8.32;;;;;;;-142.75;93.58;78369.88;5049164;28;20024;-68
2021/12/16 10:57:09;;;;;;;14.23;7.47;;;;;;;-142.75;94.07;78373.81;5048468;28;20036;-68
2021/12/16 10:59:59;;;;;;;18.40;8.02;;;;;;;-142.75;92.80;78373.81;5049133;28;20070;-68
2021/12/16 11:02:33;;;;;;;13.60;6.80;;;;;;;-142.75;92.71;78373.81;5048858;28;20104;-68
2021/12/16 11:05:04;;;;;;;13.02;7.25;;;;;;;-142.75;92.42;78348.22;5048260;28;20382;-68
2021/12/16 11:07:40;;;;;;;17.73;7.60;;;;;;;-142.75;91.66;78362.00;5030701;28;20024;-68
2021/12/16 11:10:20;;;;;;;16.65;7.38;;;;;;;-142.75;91.55;78354.13;5048070;28;20493;-68
2021/12/16 11:12:45;;;;;;;13.00;6.60;;;;;;;-142.75;92.14;78354.13;5048568;28;20032;-68
2021/12/16 11:15:13;;;;;;;;;;;;;;;-142.75;89.15;78318.69;5048863;28;20025;-69
2021/12/16 11:17:40;;;;;;;;;;;;;;;-142.75;87.43;78302.94;5048887;28;20014;-68
2021/12/16 11:20:14;;;;;;;10.13;5.28;;;;;;;-142.75;87.01;78299.00;5047825;28;19912;-69
2021/12/16 11:22:39;;;;;;;17.52;6.05;;;;;;;-142.75;87.24;78310.81;5066655;28;20390;-67
2021/12/16 11:25:16;;;;;;;;;;;;;;;-142.75;87.16;78310.81;5068783;28;20039;-67
2021/12/16 11:27:44;;;;;;;12.80;5.03;;;;;;;-142.75;86.53;78308.84;5047156;28;19919;-68
2021/12/16 11:30:30;;;;;;;10.85;5.75;;;;;;;-142.75;85.89;78304.91;5046547;28;20040;-67
2021/12/16 11:33:08;;;;;;;9.00;4.57;;;;;;;-142.75;85.83;78269.44;5047862;28;20049;-67
2021/12/16 11:35:42;;;;;;;9.70;4.85;;;;;;;-142.75;84.65;78279.28;5048791;28;20100;-67
2021/12/16 11:38:24;;;;;;;10.68;4.97;;;;;;;-142.75;84.71;78245.81;5048387;28;20359;-68
2021/12/16 11:40:59;;;;;;;12.98;5.63;;;;;;;-142.75;84.04;78267.47;5047463;28;20108;-68
2021/12/16 11:43:48;;;;;;;9.60;5.07;;;;;;;-142.75;86.08;78279.28;5030587;28;20067;-68
2021/12/16 11:46:28;;;;;;;10.85;4.45;;;;;;;-142.75;84.92;78279.28;5029920;28;20483;-67
2021/12/16 11:48:56;;;;;;;13.93;5.53;;;;;;;-142.75;84.29;78273.38;5047820;28;20061;-67
2021/12/16 11:51:31;;;;;;;10.60;4.80;;;;;;;-142.75;85.29;78308.84;5047398;28;20061;-68
2021/12/16 11:54:00;;;;;;;12.18;5.20;;;;;;;-142.75;85.98;78302.94;5047852;28;20063;-67
2021/12/16 11:56:39;;;;;;;13.27;5.68;;;;;;;-142.75;88.01;78348.22;5048272;28;20017;-68
2021/12/16 11:59:05;;;;;;;15.55;5.95;;;;;;;-142.75;89.28;78377.75;5048102;28;20033;-67
2021/12/16 12:01:31;;;;;;;;;;;;;;;-142.75;89.24;78358.06;5047961;28;20072;-68
2021/12/16 12:04:02;;;;;;;16.30;6.90;;;;;;;-142.75;88.34;78324.59;5045825;28;19920;-67
2021/12/16 12:06:30;;;;;;;15.77;7.13;;;;;;;-142.75;88.13;78308.84;5048009;28;20033;-70
2021/12/16 12:08:57;;;;;;;15.25;7.07;;;;;;;-142.75;87.73;78291.09;5029253;28;20044;-67
2021/12/16 12:11:35;;;;;;;15.00;7.57;;;;;;;-142.75;88.53;78306.88;5047363;28;20582;-68
2021/12/16 12:14:04;;;;;;;16.75;7.68;;;;;;;-142.75;88.40;78287.16;5047116;28;20024;-68
2021/12/16 12:16:36;;;;;;;16.60;7.25;;;;;;;-142.75;88.19;78300.97;5048107;28;20102;-68
2021/12/16 12:19:09;;;;;;;15.60;6.50;;;;;;;-142.75;87.85;78281.25;5053693;28;20020;-69
2021/12/16 12:21:56;;;;;;;15.07;7.35;;;;;;;-142.75;88.00;78277.31;5052674;28;20596;-68
2021/12/16 12:24:25;;;;;;;17.65;7.03;;;;;;;-142.75;87.63;78291.09;5050631;28;20554;-68
2021/12/16 12:27:04;;;;;;;15.10;6.97;;;;;;;-142.75;87.94;78267.47;5047815;28;20382;-69
2021/12/16 12:29:36;;;;;;;13.57;6.95;;;;;;;-142.75;86.62;78255.66;5030165;28;20544;-68
2021/12/16 12:32:06;;;;;;;15.38;6.70;;;;;;;-142.75;86.62;78269.44;5046761;28;20032;-68
2021/12/16 12:34:34;;;;;;;14.65;7.32;;;;;;;-142.75;87.27;78279.28;5048007;28;20428;-68
2021/12/16 12:37:06;;;;;;;16.60;7.50;;;;;;;-142.75;88.24;78308.84;5046799;28;20653;-68
2021/12/16 12:39:36;;;;;;;11.68;5.75;;;;;;;-142.75;88.58;78322.63;5047999;28;20032;-69
2021/12/16 12:42:02;;;;;;;9.35;5.80;;;;;;;-142.75;87.01;78308.84;5049305;28;20021;-67
2021/12/16 12:44:28;;;;;;;13.50;4.75;;;;;;;-142.75;86.30;78330.50;5051626;28;20101;-69
2021/12/16 12:46:54;;;;;;;9.65;4.72;;;;;;;-142.75;85.93;78291.09;5051055;28;20482;-68
2021/12/16 12:49:25;;;;;;;7.68;4.10;;;;;;;-142.75;84.25;78300.97;5033680;28;20028;-69
2021/12/16 12:52:00;;;;;;;14.10;5.38;;;;;;;-142.75;85.14;78287.16;5032406;28;20082;-68
2021/12/16 12:54:28;;;;;;;10.43;4.22;;;;;;;-142.75;83.28;78247.78;5033515;28;20133;-69
2021/12/16 12:56:58;;;;;;;9.93;4.15;;;;;;;-142.75;81.70;78247.78;5050830;28;20413;-68
2021/12/16 12:59:37;;;;;;;9.52;3.58;;;;;;;-142.75;80.28;78214.31;5051588;28;20518;-68
2021/12/16 13:02:16;;;;;;;9.63;3.72;;;;;;;-142.75;79.96;78247.78;5050245;28;20025;-68
2021/12/16 13:04:56;;;;;;;8.27;3.95;;;;;;;-142.75;79.78;78291.09;5050906;28;20667;-68
2021/12/16 13:07:38;;;;;;;7.10;3.40;;;;;;;-142.75;80.51;78261.56;5032511;28;20028;-68
2021/12/16 13:10:15;;;;;;;12.27;4.00;;;;;;;-142.75;81.68;78259.59;5033164;28;20048;-69
2021/12/16 13:13:02;;;;;;;9.32;4.20;;;;;;;-142.75;81.61;78253.69;5051718;28;20085;-68
2021/12/16 13:15:45;;;;;;;7.28;3.60;;;;;;;-142.75;80.82;78247.78;5051941;28;20024;-67
2021/12/16 13:24:45;;;;;;;8.18;3.20;;;;;;;-142.75;81.39;78318.69;5051755;28;20509;-69
2021/12/16 13:26:59;;;;;;;12.13;3.08;;;;;;;-142.75;82.88;78334.44;5045470;28;20116;-68
2021/12/16 13:32:15;;;;;;;6.80;2.30;;;;;;;-142.75;85.17;78448.66;5049942;28;20500;-69
2021/12/16 13:35:03;;;;;;;11.27;2.47;;;;;;;-142.75;87.70;78505.78;5033395;28;20040;-68
2021/12/16 13:37:31;;;;;;;9.45;2.63;;;;;;;-142.75;89.83;78515.63;5051595;28;20375;-68
2021/12/16 13:40:01;;;;;;;10.57;2.60;;;;;;;-142.75;90.74;78533.34;5050160;28;20033;-67
2021/12/16 13:42:39;;;;;;;11.40;2.97;;;;;;;-142.75;94.42;78582.59;5051343;28;20024;-68
2021/12/16 13:45:12;;;;;;;9.45;2.95;;;;;;;-142.75;97.67;78641.66;5033230;28;20541;-68
2021/12/16 13:47:56;;;;;;;7.20;3.08;;;;;;;-142.75;99.88;78645.59;5051118;28;20119;-68
2021/12/16 14:05:31;;;;;;;12.05;2.88;;;;;;;-142.75;100.00;78753.94;5070816;28;20038;-68
2021/12/16 14:08:03;;;;;;;8.65;2.63;;;;;;;-142.75;100.00;78783.47;5069563;28;20035;-68
2021/12/16 14:10:49;;;;;;;9.15;2.40;;;;;;;-142.75;100.00;78799.22;5052236;28;20559;-67
2021/12/16 14:14:08;;;;;;;9.80;2.00;;;;;;;-142.75;100.00;78809.06;5052422;28;20066;-68